sensor_id;sensor_type;location;lat;lon;timestamp;temperature;humidity
17632;DHT22;8934;51.194;17.150;2022-08-21T00:02:13;19.60;99.90
17632;DHT22;8934;51.194;17.150;2022-08-21T00:05:02;19.60;99.90
17632;DHT22;8934;51.194;17.150;2022-08-21T00:07:51;19.60;99.90
17632;DHT22;8934;51.194;17.150;2022-08-21T00:10:40;19.60;99.90
17632;DHT22;8934;51.194;17.150;2022-08-21T00:13:28;19.60;99.90
17632;DHT22;8934;51.194;17.150;2022-08-21T00:16:16;19.60;99.90
17632;DHT22;8934;51.194;17.150;2022-08-21T00:19:05;19.60;99.90
17632;DHT22;8934;51.194;17.150;2022-08-21T00:21:54;19.60;99.90
17632;DHT22;8934;51.194;17.150;2022-08-21T00:24:43;19.50;99.90
17632;DHT22;8934;51.194;17.150;2022-08-21T00:27:31;19.60;99.90
17632;DHT22;8934;51.194;17.150;2022-08-21T00:30:23;19.50;99.90
17632;DHT22;8934;51.194;17.150;2022-08-21T00:33:11;19.50;99.90
17632;DHT22;8934;51.194;17.150;2022-08-21T00:36:00;19.50;99.90
17632;DHT22;8934;51.194;17.150;2022-08-21T00:38:48;19.50;99.90
17632;DHT22;8934;51.194;17.150;2022-08-21T00:41:39;19.40;99.90
17632;DHT22;8934;51.194;17.150;2022-08-21T00:44:27;19.40;99.90
17632;DHT22;8934;51.194;17.150;2022-08-21T00:47:15;19.30;99.90
17632;DHT22;8934;51.194;17.150;2022-08-21T00:50:04;19.30;99.90
17632;DHT22;8934;51.194;17.150;2022-08-21T00:52:52;19.20;99.90
17632;DHT22;8934;51.194;17.150;2022-08-21T00:55:41;19.20;99.90
17632;DHT22;8934;51.194;17.150;2022-08-21T00:58:31;19.10;99.90
17632;DHT22;8934;51.194;17.150;2022-08-21T01:01:23;19.10;99.90
17632;DHT22;8934;51.194;17.150;2022-08-21T01:04:11;19.10;99.90
17632;DHT22;8934;51.194;17.150;2022-08-21T01:06:59;19.10;99.90
17632;DHT22;8934;51.194;17.150;2022-08-21T01:09:48;19.10;99.90
17632;DHT22;8934;51.194;17.150;2022-08-21T01:12:36;19.10;99.90
17632;DHT22;8934;51.194;17.150;2022-08-21T01:15:29;19.10;99.90
17632;DHT22;8934;51.194;17.150;2022-08-21T01:18:19;19.10;99.90
17632;DHT22;8934;51.194;17.150;2022-08-21T01:21:11;19.10;99.90
17632;DHT22;8934;51.194;17.150;2022-08-21T01:24:00;19.00;99.90
17632;DHT22;8934;51.194;17.150;2022-08-21T01:26:49;19.00;99.90
17632;DHT22;8934;51.194;17.150;2022-08-21T01:29:41;19.00;99.90
17632;DHT22;8934;51.194;17.150;2022-08-21T01:32:30;19.10;99.90
17632;DHT22;8934;51.194;17.150;2022-08-21T01:35:19;19.00;99.90
17632;DHT22;8934;51.194;17.150;2022-08-21T01:38:09;19.10;99.90
17632;DHT22;8934;51.194;17.150;2022-08-21T01:40:56;19.10;99.90
17632;DHT22;8934;51.194;17.150;2022-08-21T01:43:45;19.00;99.90
17632;DHT22;8934;51.194;17.150;2022-08-21T01:46:32;18.90;99.90
17632;DHT22;8934;51.194;17.150;2022-08-21T01:49:21;18.90;99.90
17632;DHT22;8934;51.194;17.150;2022-08-21T01:52:10;18.90;99.90
17632;DHT22;8934;51.194;17.150;2022-08-21T01:54:59;18.80;99.90
17632;DHT22;8934;51.194;17.150;2022-08-21T01:57:47;18.90;99.90
17632;DHT22;8934;51.194;17.150;2022-08-21T02:00:35;18.80;99.90
17632;DHT22;8934;51.194;17.150;2022-08-21T02:03:23;18.80;99.90
17632;DHT22;8934;51.194;17.150;2022-08-21T02:06:21;18.80;99.90
17632;DHT22;8934;51.194;17.150;2022-08-21T02:09:11;18.80;99.90
17632;DHT22;8934;51.194;17.150;2022-08-21T02:12:02;18.90;99.90
17632;DHT22;8934;51.194;17.150;2022-08-21T02:14:50;18.90;99.90
17632;DHT22;8934;51.194;17.150;2022-08-21T02:17:40;18.80;99.90
17632;DHT22;8934;51.194;17.150;2022-08-21T02:20:32;18.80;99.90
17632;DHT22;8934;51.194;17.150;2022-08-21T02:23:22;18.80;99.90
17632;DHT22;8934;51.194;17.150;2022-08-21T02:26:12;18.80;99.90
17632;DHT22;8934;51.194;17.150;2022-08-21T02:29:03;18.80;99.90
17632;DHT22;8934;51.194;17.150;2022-08-21T02:31:51;18.80;99.90
17632;DHT22;8934;51.194;17.150;2022-08-21T02:34:39;18.80;99.90
17632;DHT22;8934;51.194;17.150;2022-08-21T02:37:27;18.70;99.90
17632;DHT22;8934;51.194;17.150;2022-08-21T02:40:16;18.70;99.90
17632;DHT22;8934;51.194;17.150;2022-08-21T02:43:07;18.70;99.90
17632;DHT22;8934;51.194;17.150;2022-08-21T02:45:58;18.70;99.90
17632;DHT22;8934;51.194;17.150;2022-08-21T02:48:46;18.60;99.90
17632;DHT22;8934;51.194;17.150;2022-08-21T02:51:34;18.60;99.90
17632;DHT22;8934;51.194;17.150;2022-08-21T02:54:22;18.50;99.90
17632;DHT22;8934;51.194;17.150;2022-08-21T02:57:10;18.50;99.90
17632;DHT22;8934;51.194;17.150;2022-08-21T02:59:58;18.40;99.90
17632;DHT22;8934;51.194;17.150;2022-08-21T03:02:47;18.40;99.90
17632;DHT22;8934;51.194;17.150;2022-08-21T03:05:36;18.30;99.90
17632;DHT22;8934;51.194;17.150;2022-08-21T03:08:25;18.30;99.90
17632;DHT22;8934;51.194;17.150;2022-08-21T03:11:13;18.30;99.90
17632;DHT22;8934;51.194;17.150;2022-08-21T03:14:01;18.30;99.90
17632;DHT22;8934;51.194;17.150;2022-08-21T03:16:51;18.20;99.90
17632;DHT22;8934;51.194;17.150;2022-08-21T03:19:41;18.20;99.90
17632;DHT22;8934;51.194;17.150;2022-08-21T03:22:29;18.20;99.90
17632;DHT22;8934;51.194;17.150;2022-08-21T03:25:17;18.20;99.90
17632;DHT22;8934;51.194;17.150;2022-08-21T03:28:10;18.20;99.90
17632;DHT22;8934;51.194;17.150;2022-08-21T03:30:59;18.10;99.90
17632;DHT22;8934;51.194;17.150;2022-08-21T03:33:46;18.10;99.90
17632;DHT22;8934;51.194;17.150;2022-08-21T03:36:36;18.10;99.90
17632;DHT22;8934;51.194;17.150;2022-08-21T03:39:23;18.10;99.90
17632;DHT22;8934;51.194;17.150;2022-08-21T03:42:11;18.10;99.90
17632;DHT22;8934;51.194;17.150;2022-08-21T03:44:59;18.10;99.90
17632;DHT22;8934;51.194;17.150;2022-08-21T03:47:52;18.00;99.90
17632;DHT22;8934;51.194;17.150;2022-08-21T03:50:43;18.10;99.90
17632;DHT22;8934;51.194;17.150;2022-08-21T03:53:35;18.00;99.90
17632;DHT22;8934;51.194;17.150;2022-08-21T03:56:22;18.00;99.90
17632;DHT22;8934;51.194;17.150;2022-08-21T03:59:10;18.00;99.90
17632;DHT22;8934;51.194;17.150;2022-08-21T04:02:01;18.00;99.90
17632;DHT22;8934;51.194;17.150;2022-08-21T04:04:50;18.00;99.90
17632;DHT22;8934;51.194;17.150;2022-08-21T04:07:38;18.00;99.90
17632;DHT22;8934;51.194;17.150;2022-08-21T04:10:28;18.00;99.90
17632;DHT22;8934;51.194;17.150;2022-08-21T04:13:16;18.00;99.90
17632;DHT22;8934;51.194;17.150;2022-08-21T04:16:05;18.00;99.90
17632;DHT22;8934;51.194;17.150;2022-08-21T04:18:53;18.00;99.90
17632;DHT22;8934;51.194;17.150;2022-08-21T04:21:41;18.00;99.90
17632;DHT22;8934;51.194;17.150;2022-08-21T04:24:31;18.00;99.90
17632;DHT22;8934;51.194;17.150;2022-08-21T04:27:20;18.00;99.90
17632;DHT22;8934;51.194;17.150;2022-08-21T04:30:10;18.00;99.90
17632;DHT22;8934;51.194;17.150;2022-08-21T04:32:59;18.00;99.90
17632;DHT22;8934;51.194;17.150;2022-08-21T04:35:46;18.00;99.90
17632;DHT22;8934;51.194;17.150;2022-08-21T04:38:35;17.90;99.90
17632;DHT22;8934;51.194;17.150;2022-08-21T04:41:29;17.90;99.90
17632;DHT22;8934;51.194;17.150;2022-08-21T04:44:18;17.90;99.90
17632;DHT22;8934;51.194;17.150;2022-08-21T04:47:06;17.90;99.90
17632;DHT22;8934;51.194;17.150;2022-08-21T04:49:54;18.00;99.90
17632;DHT22;8934;51.194;17.150;2022-08-21T04:52:42;17.90;99.90
17632;DHT22;8934;51.194;17.150;2022-08-21T04:55:30;17.90;99.90
17632;DHT22;8934;51.194;17.150;2022-08-21T04:58:20;17.90;99.90
17632;DHT22;8934;51.194;17.150;2022-08-21T05:01:19;18.00;99.90
17632;DHT22;8934;51.194;17.150;2022-08-21T05:04:10;18.00;99.90
17632;DHT22;8934;51.194;17.150;2022-08-21T05:07:02;18.00;99.90
17632;DHT22;8934;51.194;17.150;2022-08-21T05:09:51;18.00;99.90
17632;DHT22;8934;51.194;17.150;2022-08-21T05:12:40;17.90;99.90
17632;DHT22;8934;51.194;17.150;2022-08-21T05:15:28;17.90;99.90
17632;DHT22;8934;51.194;17.150;2022-08-21T05:18:19;17.90;99.90
17632;DHT22;8934;51.194;17.150;2022-08-21T05:21:07;17.90;99.90
17632;DHT22;8934;51.194;17.150;2022-08-21T05:23:55;17.90;99.90
17632;DHT22;8934;51.194;17.150;2022-08-21T05:26:44;17.90;99.90
17632;DHT22;8934;51.194;17.150;2022-08-21T05:29:33;18.00;99.90
17632;DHT22;8934;51.194;17.150;2022-08-21T05:32:21;18.00;99.90
17632;DHT22;8934;51.194;17.150;2022-08-21T05:35:10;18.00;99.90
17632;DHT22;8934;51.194;17.150;2022-08-21T05:37:59;18.00;99.90
17632;DHT22;8934;51.194;17.150;2022-08-21T05:40:47;17.90;99.90
17632;DHT22;8934;51.194;17.150;2022-08-21T05:43:35;17.80;99.90
17632;DHT22;8934;51.194;17.150;2022-08-21T05:46:23;17.80;99.90
17632;DHT22;8934;51.194;17.150;2022-08-21T05:49:11;17.80;99.90
17632;DHT22;8934;51.194;17.150;2022-08-21T05:52:01;17.80;99.90
17632;DHT22;8934;51.194;17.150;2022-08-21T05:54:50;17.80;99.90
17632;DHT22;8934;51.194;17.150;2022-08-21T05:57:40;17.80;99.90
17632;DHT22;8934;51.194;17.150;2022-08-21T06:00:28;17.80;99.90
17632;DHT22;8934;51.194;17.150;2022-08-21T06:03:19;17.80;99.90
17632;DHT22;8934;51.194;17.150;2022-08-21T06:06:07;17.80;99.90
17632;DHT22;8934;51.194;17.150;2022-08-21T06:08:57;17.80;99.90
17632;DHT22;8934;51.194;17.150;2022-08-21T06:11:44;17.80;99.90
17632;DHT22;8934;51.194;17.150;2022-08-21T06:14:32;17.80;99.90
17632;DHT22;8934;51.194;17.150;2022-08-21T06:17:20;17.80;99.90
17632;DHT22;8934;51.194;17.150;2022-08-21T06:20:09;17.80;99.90
17632;DHT22;8934;51.194;17.150;2022-08-21T06:22:57;17.80;99.90
17632;DHT22;8934;51.194;17.150;2022-08-21T06:25:47;17.80;99.90
17632;DHT22;8934;51.194;17.150;2022-08-21T06:28:36;17.80;99.90
17632;DHT22;8934;51.194;17.150;2022-08-21T06:31:26;17.80;99.90
17632;DHT22;8934;51.194;17.150;2022-08-21T06:34:14;17.80;99.90
17632;DHT22;8934;51.194;17.150;2022-08-21T06:37:03;17.80;99.90
17632;DHT22;8934;51.194;17.150;2022-08-21T06:39:51;17.80;99.90
17632;DHT22;8934;51.194;17.150;2022-08-21T06:42:40;17.80;99.90
17632;DHT22;8934;51.194;17.150;2022-08-21T06:45:29;17.80;99.90
17632;DHT22;8934;51.194;17.150;2022-08-21T06:48:17;17.80;99.90
17632;DHT22;8934;51.194;17.150;2022-08-21T06:51:05;17.80;99.90
17632;DHT22;8934;51.194;17.150;2022-08-21T06:53:53;17.80;99.90
17632;DHT22;8934;51.194;17.150;2022-08-21T06:56:44;17.80;99.90
17632;DHT22;8934;51.194;17.150;2022-08-21T06:59:34;17.60;99.90
17632;DHT22;8934;51.194;17.150;2022-08-21T07:02:21;17.40;99.90
17632;DHT22;8934;51.194;17.150;2022-08-21T07:05:09;17.20;99.90
17632;DHT22;8934;51.194;17.150;2022-08-21T07:08:04;17.00;99.90
17632;DHT22;8934;51.194;17.150;2022-08-21T07:10:52;16.90;99.90
17632;DHT22;8934;51.194;17.150;2022-08-21T07:13:41;16.90;99.90
17632;DHT22;8934;51.194;17.150;2022-08-21T07:16:30;16.90;99.90
17632;DHT22;8934;51.194;17.150;2022-08-21T07:19:18;16.90;99.90
17632;DHT22;8934;51.194;17.150;2022-08-21T07:22:06;16.90;99.90
17632;DHT22;8934;51.194;17.150;2022-08-21T07:24:54;17.00;99.90
17632;DHT22;8934;51.194;17.150;2022-08-21T07:27:42;17.00;99.90
17632;DHT22;8934;51.194;17.150;2022-08-21T07:30:30;17.00;99.90
17632;DHT22;8934;51.194;17.150;2022-08-21T07:33:19;17.00;99.90
17632;DHT22;8934;51.194;17.150;2022-08-21T07:36:08;16.90;99.90
17632;DHT22;8934;51.194;17.150;2022-08-21T07:38:56;16.80;99.90
17632;DHT22;8934;51.194;17.150;2022-08-21T07:41:44;16.70;99.90
17632;DHT22;8934;51.194;17.150;2022-08-21T07:44:32;16.50;99.90
17632;DHT22;8934;51.194;17.150;2022-08-21T07:47:20;16.50;99.90
17632;DHT22;8934;51.194;17.150;2022-08-21T07:50:28;16.40;99.90
17632;DHT22;8934;51.194;17.150;2022-08-21T07:53:17;16.30;99.90
17632;DHT22;8934;51.194;17.150;2022-08-21T07:56:05;16.20;99.90
17632;DHT22;8934;51.194;17.150;2022-08-21T07:58:54;16.20;99.90
17632;DHT22;8934;51.194;17.150;2022-08-21T08:01:44;16.10;99.90
17632;DHT22;8934;51.194;17.150;2022-08-21T08:04:32;16.10;99.90
17632;DHT22;8934;51.194;17.150;2022-08-21T08:07:21;16.10;99.90
17632;DHT22;8934;51.194;17.150;2022-08-21T08:10:10;16.10;99.90
17632;DHT22;8934;51.194;17.150;2022-08-21T08:12:58;16.10;99.90
17632;DHT22;8934;51.194;17.150;2022-08-21T08:15:46;16.00;99.90
17632;DHT22;8934;51.194;17.150;2022-08-21T08:18:34;16.00;99.90
17632;DHT22;8934;51.194;17.150;2022-08-21T08:21:22;15.90;99.90
17632;DHT22;8934;51.194;17.150;2022-08-21T08:24:11;15.90;99.90
17632;DHT22;8934;51.194;17.150;2022-08-21T08:27:04;15.90;99.90
17632;DHT22;8934;51.194;17.150;2022-08-21T08:29:52;15.90;99.90
17632;DHT22;8934;51.194;17.150;2022-08-21T08:32:40;15.90;99.90
17632;DHT22;8934;51.194;17.150;2022-08-21T08:35:28;15.90;99.90
17632;DHT22;8934;51.194;17.150;2022-08-21T08:38:17;15.90;99.90
17632;DHT22;8934;51.194;17.150;2022-08-21T08:41:14;15.90;99.90
17632;DHT22;8934;51.194;17.150;2022-08-21T08:44:04;15.90;99.90
17632;DHT22;8934;51.194;17.150;2022-08-21T08:46:54;15.90;99.90
17632;DHT22;8934;51.194;17.150;2022-08-21T08:50:03;16.00;99.90
17632;DHT22;8934;51.194;17.150;2022-08-21T08:52:55;16.00;99.90
17632;DHT22;8934;51.194;17.150;2022-08-21T08:55:46;16.10;99.90
17632;DHT22;8934;51.194;17.150;2022-08-21T08:58:40;16.20;99.90
17632;DHT22;8934;51.194;17.150;2022-08-21T09:01:29;16.30;99.90
17632;DHT22;8934;51.194;17.150;2022-08-21T09:04:26;16.40;99.90
17632;DHT22;8934;51.194;17.150;2022-08-21T09:07:20;16.40;99.90
17632;DHT22;8934;51.194;17.150;2022-08-21T09:10:13;16.50;99.90
17632;DHT22;8934;51.194;17.150;2022-08-21T09:13:10;16.50;99.90
17632;DHT22;8934;51.194;17.150;2022-08-21T09:16:08;16.50;99.90
17632;DHT22;8934;51.194;17.150;2022-08-21T09:19:04;16.60;99.90
17632;DHT22;8934;51.194;17.150;2022-08-21T09:22:01;16.60;99.90
17632;DHT22;8934;51.194;17.150;2022-08-21T09:25:01;16.70;99.90
17632;DHT22;8934;51.194;17.150;2022-08-21T09:27:50;16.70;99.90
17632;DHT22;8934;51.194;17.150;2022-08-21T09:30:39;16.70;99.90
17632;DHT22;8934;51.194;17.150;2022-08-21T09:33:29;16.70;99.90
17632;DHT22;8934;51.194;17.150;2022-08-21T09:36:25;16.70;99.90
17632;DHT22;8934;51.194;17.150;2022-08-21T09:39:27;16.80;99.90
17632;DHT22;8934;51.194;17.150;2022-08-21T09:42:23;16.80;99.90
17632;DHT22;8934;51.194;17.150;2022-08-21T09:45:15;16.90;99.90
17632;DHT22;8934;51.194;17.150;2022-08-21T09:48:11;16.90;99.90
17632;DHT22;8934;51.194;17.150;2022-08-21T09:51:10;17.00;99.90
17632;DHT22;8934;51.194;17.150;2022-08-21T09:54:14;16.90;99.90
17632;DHT22;8934;51.194;17.150;2022-08-21T09:57:14;16.90;99.90
17632;DHT22;8934;51.194;17.150;2022-08-21T10:00:27;16.90;99.90
17632;DHT22;8934;51.194;17.150;2022-08-21T10:03:18;16.90;99.90
17632;DHT22;8934;51.194;17.150;2022-08-21T10:06:09;16.90;99.90
17632;DHT22;8934;51.194;17.150;2022-08-21T10:09:10;16.90;99.90
17632;DHT22;8934;51.194;17.150;2022-08-21T10:12:14;16.80;99.90
17632;DHT22;8934;51.194;17.150;2022-08-21T10:15:10;16.70;99.90
17632;DHT22;8934;51.194;17.150;2022-08-21T10:18:06;16.60;99.90
17632;DHT22;8934;51.194;17.150;2022-08-21T10:21:02;16.60;99.90
17632;DHT22;8934;51.194;17.150;2022-08-21T10:24:08;16.70;99.90
17632;DHT22;8934;51.194;17.150;2022-08-21T10:27:22;16.70;99.90
17632;DHT22;8934;51.194;17.150;2022-08-21T10:30:15;16.70;99.90
17632;DHT22;8934;51.194;17.150;2022-08-21T10:33:16;16.80;99.90
17632;DHT22;8934;51.194;17.150;2022-08-21T10:36:13;16.80;99.90
17632;DHT22;8934;51.194;17.150;2022-08-21T10:39:08;16.90;99.90
17632;DHT22;8934;51.194;17.150;2022-08-21T10:42:37;16.90;99.90
17632;DHT22;8934;51.194;17.150;2022-08-21T10:45:38;16.90;99.90
17632;DHT22;8934;51.194;17.150;2022-08-21T10:48:36;16.90;99.90
17632;DHT22;8934;51.194;17.150;2022-08-21T10:51:30;16.90;99.90
17632;DHT22;8934;51.194;17.150;2022-08-21T10:54:29;16.90;99.90
17632;DHT22;8934;51.194;17.150;2022-08-21T10:57:25;16.90;99.90
17632;DHT22;8934;51.194;17.150;2022-08-21T11:00:20;16.90;99.90
17632;DHT22;8934;51.194;17.150;2022-08-21T11:03:12;16.90;99.90
17632;DHT22;8934;51.194;17.150;2022-08-21T11:06:05;17.00;99.90
17632;DHT22;8934;51.194;17.150;2022-08-21T11:08:59;17.00;99.90
17632;DHT22;8934;51.194;17.150;2022-08-21T11:11:59;17.00;99.90
17632;DHT22;8934;51.194;17.150;2022-08-21T11:14:59;17.00;99.90
17632;DHT22;8934;51.194;17.150;2022-08-21T11:17:52;17.10;99.90
17632;DHT22;8934;51.194;17.150;2022-08-21T11:20:46;17.10;99.90
17632;DHT22;8934;51.194;17.150;2022-08-21T11:23:43;17.00;99.90
17632;DHT22;8934;51.194;17.150;2022-08-21T11:26:39;16.90;99.90
17632;DHT22;8934;51.194;17.150;2022-08-21T11:29:32;16.90;99.90
17632;DHT22;8934;51.194;17.150;2022-08-21T11:35:48;16.90;99.90
17632;DHT22;8934;51.194;17.150;2022-08-21T11:38:41;16.90;99.90
17632;DHT22;8934;51.194;17.150;2022-08-21T11:41:31;16.90;99.90
17632;DHT22;8934;51.194;17.150;2022-08-21T11:44:28;16.90;99.90
17632;DHT22;8934;51.194;17.150;2022-08-21T11:47:31;16.90;99.90
17632;DHT22;8934;51.194;17.150;2022-08-21T11:50:25;17.00;99.90
17632;DHT22;8934;51.194;17.150;2022-08-21T11:53:26;17.00;99.90
17632;DHT22;8934;51.194;17.150;2022-08-21T11:56:20;17.00;99.90
17632;DHT22;8934;51.194;17.150;2022-08-21T11:59:13;17.00;99.90
17632;DHT22;8934;51.194;17.150;2022-08-21T12:02:12;17.00;99.90
17632;DHT22;8934;51.194;17.150;2022-08-21T12:05:05;17.10;99.90
17632;DHT22;8934;51.194;17.150;2022-08-21T12:08:05;17.00;99.90
17632;DHT22;8934;51.194;17.150;2022-08-21T12:11:00;17.00;99.90
17632;DHT22;8934;51.194;17.150;2022-08-21T12:13:54;17.00;99.90
17632;DHT22;8934;51.194;17.150;2022-08-21T12:16:45;17.00;99.90
17632;DHT22;8934;51.194;17.150;2022-08-21T12:19:33;17.10;99.90
17632;DHT22;8934;51.194;17.150;2022-08-21T12:22:36;17.10;99.90
17632;DHT22;8934;51.194;17.150;2022-08-21T12:25:36;17.20;99.90
17632;DHT22;8934;51.194;17.150;2022-08-21T12:28:28;17.30;99.90
17632;DHT22;8934;51.194;17.150;2022-08-21T12:31:22;17.30;99.90
17632;DHT22;8934;51.194;17.150;2022-08-21T12:34:10;17.40;99.90
17632;DHT22;8934;51.194;17.150;2022-08-21T12:37:01;17.40;99.90
17632;DHT22;8934;51.194;17.150;2022-08-21T12:39:53;17.40;99.90
17632;DHT22;8934;51.194;17.150;2022-08-21T12:42:48;17.30;99.90
17632;DHT22;8934;51.194;17.150;2022-08-21T12:45:46;17.30;99.90
17632;DHT22;8934;51.194;17.150;2022-08-21T12:48:41;17.20;99.90
17632;DHT22;8934;51.194;17.150;2022-08-21T12:51:36;17.20;99.90
17632;DHT22;8934;51.194;17.150;2022-08-21T12:54:31;17.10;99.90
17632;DHT22;8934;51.194;17.150;2022-08-21T12:57:24;17.20;99.90
17632;DHT22;8934;51.194;17.150;2022-08-21T13:00:21;17.10;99.90
17632;DHT22;8934;51.194;17.150;2022-08-21T13:03:09;17.10;99.90
17632;DHT22;8934;51.194;17.150;2022-08-21T13:05:58;17.10;99.90
17632;DHT22;8934;51.194;17.150;2022-08-21T13:08:47;17.10;99.90
17632;DHT22;8934;51.194;17.150;2022-08-21T13:11:35;17.20;99.90
17632;DHT22;8934;51.194;17.150;2022-08-21T13:14:31;17.30;99.90
17632;DHT22;8934;51.194;17.150;2022-08-21T13:17:32;17.30;99.90
17632;DHT22;8934;51.194;17.150;2022-08-21T13:20:27;17.40;99.90
17632;DHT22;8934;51.194;17.150;2022-08-21T13:23:29;17.50;99.90
17632;DHT22;8934;51.194;17.150;2022-08-21T13:26:21;17.50;99.90
17632;DHT22;8934;51.194;17.150;2022-08-21T13:29:11;17.50;99.90
17632;DHT22;8934;51.194;17.150;2022-08-21T13:32:03;17.60;99.90
17632;DHT22;8934;51.194;17.150;2022-08-21T13:34:53;17.60;99.90
17632;DHT22;8934;51.194;17.150;2022-08-21T13:37:41;17.70;99.90
17632;DHT22;8934;51.194;17.150;2022-08-21T13:40:31;17.70;99.90
17632;DHT22;8934;51.194;17.150;2022-08-21T13:43:21;17.70;99.90
17632;DHT22;8934;51.194;17.150;2022-08-21T13:46:12;17.60;99.90
17632;DHT22;8934;51.194;17.150;2022-08-21T13:49:04;17.70;99.90
17632;DHT22;8934;51.194;17.150;2022-08-21T13:51:52;17.70;99.90
17632;DHT22;8934;51.194;17.150;2022-08-21T13:54:42;17.70;99.90
17632;DHT22;8934;51.194;17.150;2022-08-21T13:57:33;17.70;99.90
17632;DHT22;8934;51.194;17.150;2022-08-21T14:00:26;17.70;99.90
17632;DHT22;8934;51.194;17.150;2022-08-21T14:03:27;17.60;99.90
17632;DHT22;8934;51.194;17.150;2022-08-21T14:06:19;17.60;99.90
17632;DHT22;8934;51.194;17.150;2022-08-21T14:09:09;17.60;99.90
17632;DHT22;8934;51.194;17.150;2022-08-21T14:12:01;17.60;99.90
17632;DHT22;8934;51.194;17.150;2022-08-21T14:14:51;17.60;99.90
17632;DHT22;8934;51.194;17.150;2022-08-21T14:17:41;17.60;99.90
17632;DHT22;8934;51.194;17.150;2022-08-21T14:20:31;17.50;99.90
17632;DHT22;8934;51.194;17.150;2022-08-21T14:23:25;17.60;99.90
17632;DHT22;8934;51.194;17.150;2022-08-21T14:26:17;17.60;99.90
17632;DHT22;8934;51.194;17.150;2022-08-21T14:29:08;17.60;99.90
17632;DHT22;8934;51.194;17.150;2022-08-21T14:31:57;17.60;99.90
17632;DHT22;8934;51.194;17.150;2022-08-21T14:34:45;17.60;99.90
17632;DHT22;8934;51.194;17.150;2022-08-21T14:37:34;17.60;99.90
17632;DHT22;8934;51.194;17.150;2022-08-21T14:40:24;17.60;99.90
17632;DHT22;8934;51.194;17.150;2022-08-21T14:43:13;17.60;99.90
17632;DHT22;8934;51.194;17.150;2022-08-21T14:46:01;17.70;99.90
17632;DHT22;8934;51.194;17.150;2022-08-21T14:48:49;17.70;99.90
17632;DHT22;8934;51.194;17.150;2022-08-21T14:51:37;17.70;99.90
17632;DHT22;8934;51.194;17.150;2022-08-21T14:54:39;17.70;99.90
17632;DHT22;8934;51.194;17.150;2022-08-21T14:57:30;17.60;99.90
17632;DHT22;8934;51.194;17.150;2022-08-21T15:00:20;17.70;99.90
17632;DHT22;8934;51.194;17.150;2022-08-21T15:03:20;17.70;99.90
17632;DHT22;8934;51.194;17.150;2022-08-21T15:06:09;17.70;99.90
17632;DHT22;8934;51.194;17.150;2022-08-21T15:08:57;17.70;99.90
17632;DHT22;8934;51.194;17.150;2022-08-21T15:11:45;17.60;99.90
17632;DHT22;8934;51.194;17.150;2022-08-21T15:14:37;17.60;99.90
17632;DHT22;8934;51.194;17.150;2022-08-21T15:17:27;17.60;99.90
17632;DHT22;8934;51.194;17.150;2022-08-21T15:20:15;17.60;99.90
17632;DHT22;8934;51.194;17.150;2022-08-21T15:23:04;17.70;99.90
17632;DHT22;8934;51.194;17.150;2022-08-21T15:25:56;17.70;99.90
17632;DHT22;8934;51.194;17.150;2022-08-21T15:28:45;17.70;99.90
17632;DHT22;8934;51.194;17.150;2022-08-21T15:31:35;17.80;99.90
17632;DHT22;8934;51.194;17.150;2022-08-21T15:34:24;17.80;99.90
17632;DHT22;8934;51.194;17.150;2022-08-21T15:37:13;17.90;99.90
17632;DHT22;8934;51.194;17.150;2022-08-21T15:40:01;17.90;99.90
17632;DHT22;8934;51.194;17.150;2022-08-21T15:42:49;17.90;99.90
17632;DHT22;8934;51.194;17.150;2022-08-21T15:45:39;17.90;99.90
17632;DHT22;8934;51.194;17.150;2022-08-21T15:48:29;17.90;99.90
17632;DHT22;8934;51.194;17.150;2022-08-21T15:51:17;17.90;99.90
17632;DHT22;8934;51.194;17.150;2022-08-21T15:54:04;17.90;99.90
17632;DHT22;8934;51.194;17.150;2022-08-21T15:56:56;17.90;99.90
17632;DHT22;8934;51.194;17.150;2022-08-21T15:59:53;17.90;99.90
17632;DHT22;8934;51.194;17.150;2022-08-21T16:02:45;17.90;99.90
17632;DHT22;8934;51.194;17.150;2022-08-21T16:05:34;17.90;99.90
17632;DHT22;8934;51.194;17.150;2022-08-21T16:08:23;17.80;99.90
17632;DHT22;8934;51.194;17.150;2022-08-21T16:11:11;17.90;99.90
17632;DHT22;8934;51.194;17.150;2022-08-21T16:14:01;17.90;99.90
17632;DHT22;8934;51.194;17.150;2022-08-21T16:16:48;17.80;99.90
17632;DHT22;8934;51.194;17.150;2022-08-21T16:19:36;17.80;99.90
17632;DHT22;8934;51.194;17.150;2022-08-21T16:22:26;17.90;99.90
17632;DHT22;8934;51.194;17.150;2022-08-21T16:25:30;17.80;99.90
17632;DHT22;8934;51.194;17.150;2022-08-21T16:28:20;17.80;99.90
17632;DHT22;8934;51.194;17.150;2022-08-21T16:31:10;17.80;99.90
17632;DHT22;8934;51.194;17.150;2022-08-21T16:34:00;17.90;99.90
17632;DHT22;8934;51.194;17.150;2022-08-21T16:36:49;17.90;99.90
17632;DHT22;8934;51.194;17.150;2022-08-21T16:39:38;17.90;99.90
17632;DHT22;8934;51.194;17.150;2022-08-21T16:42:26;17.80;99.90
17632;DHT22;8934;51.194;17.150;2022-08-21T16:45:16;17.80;99.90
17632;DHT22;8934;51.194;17.150;2022-08-21T16:48:04;17.80;99.90
17632;DHT22;8934;51.194;17.150;2022-08-21T16:50:55;17.80;99.90
17632;DHT22;8934;51.194;17.150;2022-08-21T16:53:44;17.80;99.90
17632;DHT22;8934;51.194;17.150;2022-08-21T16:56:33;17.80;99.90
17632;DHT22;8934;51.194;17.150;2022-08-21T16:59:26;17.80;99.90
17632;DHT22;8934;51.194;17.150;2022-08-21T17:02:22;17.70;99.90
17632;DHT22;8934;51.194;17.150;2022-08-21T17:05:12;17.70;99.90
17632;DHT22;8934;51.194;17.150;2022-08-21T17:08:00;17.60;99.90
17632;DHT22;8934;51.194;17.150;2022-08-21T17:10:49;17.60;99.90
17632;DHT22;8934;51.194;17.150;2022-08-21T17:13:39;17.60;99.90
17632;DHT22;8934;51.194;17.150;2022-08-21T17:16:27;17.50;99.90
17632;DHT22;8934;51.194;17.150;2022-08-21T17:19:16;17.50;99.90
17632;DHT22;8934;51.194;17.150;2022-08-21T17:22:06;17.50;99.90
17632;DHT22;8934;51.194;17.150;2022-08-21T17:24:54;17.50;99.90
17632;DHT22;8934;51.194;17.150;2022-08-21T17:27:42;17.40;99.90
17632;DHT22;8934;51.194;17.150;2022-08-21T17:30:32;17.40;99.90
17632;DHT22;8934;51.194;17.150;2022-08-21T17:33:20;17.40;99.90
17632;DHT22;8934;51.194;17.150;2022-08-21T17:36:08;17.30;99.90
17632;DHT22;8934;51.194;17.150;2022-08-21T17:38:56;17.30;99.90
17632;DHT22;8934;51.194;17.150;2022-08-21T17:41:45;17.30;99.90
17632;DHT22;8934;51.194;17.150;2022-08-21T17:44:38;17.20;99.90
17632;DHT22;8934;51.194;17.150;2022-08-21T17:47:28;17.10;99.90
17632;DHT22;8934;51.194;17.150;2022-08-21T17:50:17;17.10;99.90
17632;DHT22;8934;51.194;17.150;2022-08-21T17:53:08;17.00;99.90
17632;DHT22;8934;51.194;17.150;2022-08-21T17:55:56;17.00;99.90
17632;DHT22;8934;51.194;17.150;2022-08-21T17:58:47;17.10;99.90
17632;DHT22;8934;51.194;17.150;2022-08-21T18:01:39;17.10;99.90
17632;DHT22;8934;51.194;17.150;2022-08-21T18:04:30;17.10;99.90